Time,TemperatureF,DewpointF,PressureIn,WindDirection,WindDirectionDegrees,WindSpeedMPH,WindSpeedGustMPH,Humidity,HourlyPrecipIn,Conditions,Clouds,dailyrainin,SoftwareType,DateUTC
2013-08-26 00:23:00,76.0,73.0,30.22,South,190,0.0,0.0,90,0.00,,,0.00,,2013-08-26 05:23:00,
2013-08-26 00:43:00,76.0,73.0,30.22,South,190,0.0,0.0,90,0.00,,,0.00,,2013-08-26 05:43:00,
2013-08-26 00:52:00,76.0,73.0,30.22,South,190,0.0,0.0,90,0.00,,,0.00,,2013-08-26 05:52:00,
2013-08-26 01:12:00,75.0,72.0,30.22,South,190,0.0,0.0,91,0.00,,,0.00,,2013-08-26 06:12:00,
2013-08-26 01:21:00,75.0,72.0,30.22,South,190,0.0,0.0,91,0.00,,,0.00,,2013-08-26 06:21:00,
2013-08-26 01:42:00,75.0,72.0,30.21,South,190,0.0,0.0,91,0.00,,,0.00,,2013-08-26 06:42:00,
2013-08-26 01:52:00,75.0,72.0,30.21,South,190,0.0,0.0,91,0.00,,,0.00,,2013-08-26 06:52:00,
2013-08-26 02:22:00,75.0,73.0,30.20,South,190,0.0,0.0,92,0.00,,,0.00,,2013-08-26 07:22:00,
2013-08-26 02:52:00,75.0,73.0,30.20,South,190,0.0,0.0,93,0.00,,,0.00,,2013-08-26 07:52:00,
2013-08-26 03:12:00,75.0,73.0,30.20,South,190,0.0,0.0,93,0.00,,,0.00,,2013-08-26 08:12:00,
2013-08-26 03:22:00,75.0,73.0,30.20,South,190,0.0,0.0,94,0.00,,,0.00,,2013-08-26 08:22:00,
2013-08-26 03:52:00,75.0,73.0,30.20,South,190,0.0,0.0,94,0.00,,,0.00,,2013-08-26 08:52:00,
2013-08-26 04:11:00,75.0,73.0,30.19,South,190,0.0,0.0,94,0.00,,,0.00,,2013-08-26 09:11:00,
2013-08-26 04:21:00,75.0,73.0,30.19,South,190,0.0,0.0,94,0.00,,,0.00,,2013-08-26 09:21:00,
2013-08-26 04:53:00,74.0,72.0,30.19,South,190,0.0,0.0,94,0.00,,,0.00,,2013-08-26 09:53:00,
2013-08-26 05:23:00,74.0,72.0,30.19,South,190,0.0,0.0,94,0.00,,,0.00,,2013-08-26 10:23:00,
2013-08-26 05:52:00,74.0,72.0,30.20,South,190,0.0,0.0,95,0.00,,,0.00,,2013-08-26 10:52:00,
2013-08-26 06:22:00,74.0,72.0,30.20,South,190,0.0,0.0,95,0.00,,,0.00,,2013-08-26 11:22:00,
2013-08-26 06:52:00,74.0,72.0,30.22,South,190,0.0,0.0,95,0.00,,,0.00,,2013-08-26 11:52:00,
2013-08-26 07:12:00,74.0,73.0,30.23,South,190,0.0,0.0,96,0.00,,,0.00,,2013-08-26 12:12:00,
2013-08-26 07:21:00,74.0,73.0,30.23,South,190,0.0,0.0,96,0.00,,,0.00,,2013-08-26 12:21:00,
2013-08-26 07:52:00,75.0,74.0,30.24,South,190,0.0,0.0,96,0.00,,,0.00,,2013-08-26 12:52:00,
2013-08-26 08:21:00,76.0,75.0,30.24,SSW,196,0.0,0.0,97,0.00,,,0.00,,2013-08-26 13:21:00,
2013-08-26 08:52:00,78.0,77.0,30.24,SSW,198,1.0,3.0,97,0.00,,,0.00,,2013-08-26 13:52:00,
2013-08-26 09:22:00,79.0,78.0,30.24,SW,228,3.0,4.0,96,0.00,,,0.00,,2013-08-26 14:22:00,
2013-08-26 09:52:00,80.0,77.0,30.24,SE,126,2.0,5.0,92,0.00,,,0.00,,2013-08-26 14:52:00,
2013-08-26 10:01:00,80.0,77.0,30.24,SE,126,2.0,5.0,92,0.00,,,0.00,,2013-08-26 15:01:00,
2013-08-26 10:12:00,80.0,77.0,30.24,SE,126,2.0,5.0,92,0.00,,,0.00,,2013-08-26 15:12:00,
2013-08-26 15:52:00,90.0,74.0,30.12,SSW,200,1.0,3.0,59,0.00,,,0.00,,2013-08-26 20:52:00,
2013-08-26 16:22:00,90.0,72.0,30.10,NW,310,3.0,6.0,55,0.00,,,0.00,,2013-08-26 21:22:00,
2013-08-26 16:55:00,90.0,73.0,30.10,SSW,196,1.0,3.0,58,0.00,,,0.00,,2013-08-26 21:55:00,
2013-08-26 17:26:00,89.0,75.0,30.10,South,176,1.0,1.0,63,0.00,,,0.00,,2013-08-26 22:26:00,
2013-08-26 17:53:00,88.0,73.0,30.09,SSW,200,0.0,1.0,62,0.00,,,0.00,,2013-08-26 22:53:00,
2013-08-26 18:22:00,87.0,74.0,30.09,SSW,200,0.0,1.0,65,0.00,,,0.00,,2013-08-26 23:22:00,
2013-08-26 18:52:00,86.0,75.0,30.08,South,169,0.0,0.0,69,0.00,,,0.00,,2013-08-26 23:52:00,
2013-08-26 19:21:00,85.0,74.0,30.08,South,169,1.0,2.0,70,0.00,,,0.00,,2013-08-27 00:21:00,
2013-08-26 19:52:00,84.0,74.0,30.09,South,169,0.0,0.0,72,0.00,,,0.00,,2013-08-27 00:52:00,
2013-08-26 20:22:00,82.0,74.0,30.09,South,169,0.0,0.0,76,0.00,,,0.00,,2013-08-27 01:22:00,
2013-08-26 20:52:00,80.0,73.0,30.09,South,169,0.0,0.0,79,0.00,,,0.00,,2013-08-27 01:52:00,
2013-08-26 21:21:00,79.0,73.0,30.10,South,169,0.0,0.0,82,0.00,,,0.00,,2013-08-27 02:21:00,
2013-08-26 21:52:00,79.0,74.0,30.09,South,169,0.0,0.0,85,0.00,,,0.00,,2013-08-27 02:52:00,
2013-08-26 22:22:00,78.0,74.0,30.09,SSE,161,0.0,0.0,87,0.00,,,0.00,,2013-08-27 03:22:00,
2013-08-26 22:44:00,78.0,74.0,30.09,SSE,161,0.0,0.0,88,0.00,,,0.00,,2013-08-27 03:44:00,
2013-08-26 22:58:00,78.0,74.0,30.09,SSE,161,0.0,0.0,88,0.00,,,0.00,,2013-08-27 03:58:00,
2013-08-26 23:18:00,78.0,74.0,30.09,SSE,161,0.0,2.0,88,0.00,,,0.00,,2013-08-27 04:18:00,
2013-08-26 23:47:00,77.0,73.0,30.09,SSE,161,0.0,0.0,88,0.00,,,0.00,,2013-08-27 04:47:00,
2013-08-26 23:54:00,77.0,73.0,30.09,SSE,161,0.0,0.0,88,0.00,,,0.00,,2013-08-27 04:54:00,